Time;durP1;ratioP1;P1;durP2;ratioP2;P2;SDS_P1;SDS_P2;PMS_P1;PMS_P2;Temp;Humidity;BMP_temperature;BMP_pressure;BME280_temperature;BME280_humidity;BME280_pressure;Samples;Min_cycle;Max_cycle;Signal;HPM_P1;HPM_P2
2022/05/18 00:00:17;;;;;;;6.00;3.83;;;14.70;99.90;;;;;;4955250;28;20415;-77
2022/05/18 00:02:42;;;;;;;3.47;3.27;;;14.60;99.90;;;;;;4955086;28;20468;-74
2022/05/18 00:05:08;;;;;;;3.40;3.10;;;14.60;99.90;;;;;;4955257;28;20456;-74
2022/05/18 00:07:33;;;;;;;3.00;2.80;;;14.60;99.90;;;;;;4955007;28;20188;-76
2022/05/18 00:09:59;;;;;;;13.87;4.60;;;14.50;99.90;;;;;;4955212;28;20188;-75
2022/05/18 00:12:25;;;;;;;5.13;3.53;;;14.50;99.90;;;;;;4954474;28;20299;-74
2022/05/18 00:14:51;;;;;;;3.60;3.30;;;14.40;99.90;;;;;;4955270;28;20307;-75
2022/05/18 00:17:16;;;;;;;3.43;3.00;;;14.40;99.90;;;;;;4954736;28;20499;-74
2022/05/18 00:19:42;;;;;;;3.00;2.80;;;14.30;99.90;;;;;;4955058;28;20235;-75
2022/05/18 00:22:07;;;;;;;4.00;3.50;;;14.30;99.90;;;;;;4954505;28;20707;-75
2022/05/18 00:24:33;;;;;;;4.47;3.10;;;14.20;99.90;;;;;;4954835;28;20263;-75
2022/05/18 00:27:00;;;;;;;6.80;4.00;;;14.30;99.90;;;;;;4954720;28;20235;-75
2022/05/18 00:29:26;;;;;;;3.60;3.40;;;14.30;99.90;;;;;;4954836;28;20169;-75
2022/05/18 00:31:51;;;;;;;4.37;3.97;;;14.20;99.90;;;;;;4958024;28;20474;-75
2022/05/18 00:34:17;;;;;;;3.83;3.30;;;14.20;99.90;;;;;;4954710;28;20187;-76
2022/05/18 00:36:43;;;;;;;5.10;4.17;;;14.10;99.90;;;;;;4953618;29;20177;-75
2022/05/18 00:39:09;;;;;;;5.80;3.47;;;14.10;99.90;;;;;;4954733;28;20168;-75
2022/05/18 00:41:35;;;;;;;4.20;3.80;;;14.10;99.90;;;;;;4952883;29;20450;-75
2022/05/18 00:44:01;;;;;;;5.90;3.80;;;14.00;99.90;;;;;;4954442;28;20215;-75
2022/05/18 00:46:26;;;;;;;5.50;4.73;;;14.00;99.90;;;;;;4952964;29;20978;-75
2022/05/18 00:48:53;;;;;;;4.47;3.63;;;13.90;99.90;;;;;;4954409;28;20499;-77
2022/05/18 00:51:31;;;;;;;7.20;3.63;;;13.90;99.90;;;;;;4952481;29;20220;-75
2022/05/18 00:54:06;;;;;;;4.87;4.37;;;13.80;99.90;;;;;;4954462;28;20425;-74
2022/05/18 00:56:41;;;;;;;4.50;4.10;;;13.80;99.90;;;;;;4954207;28;20420;-75
2022/05/18 00:59:20;;;;;;;5.53;4.23;;;13.80;99.90;;;;;;4954297;28;20510;-75
2022/05/18 02:32:22;;;;;;;6.73;5.63;;;13.00;99.90;;;;;;5237721;23;20499;-76
2022/05/18 02:34:48;;;;;;;6.13;4.63;;;12.90;99.90;;;;;;4945883;29;20423;-76
2022/05/18 02:37:14;;;;;;;5.10;4.40;;;12.90;99.90;;;;;;4941866;28;20189;-76
2022/05/18 02:39:40;;;;;;;5.10;4.60;;;12.90;99.90;;;;;;4933726;29;20192;-75
2022/05/18 02:42:05;;;;;;;5.33;4.37;;;12.80;99.90;;;;;;4933660;29;20281;-76
2022/05/18 02:44:31;;;;;;;5.87;4.80;;;12.80;99.90;;;;;;4933669;29;20603;-76
2022/05/18 02:46:59;;;;;;;3.60;3.30;;;12.80;99.90;;;;;;4933768;29;20192;-76
2022/05/18 02:49:25;;;;;;;4.07;3.70;;;12.80;99.90;;;;;;4933900;29;20177;-75
2022/05/18 02:51:51;;;;;;;5.90;4.83;;;12.70;99.90;;;;;;4933422;29;20504;-75
2022/05/18 02:57:02;;;;;;;6.13;4.47;;;12.80;99.90;;;;;;4935170;29;20180;-75
2022/05/18 02:59:28;;;;;;;4.53;3.93;;;12.80;99.90;;;;;;4934997;29;20465;-76
2022/05/18 03:01:53;;;;;;;6.83;5.10;;;12.80;99.90;;;;;;4934565;29;20473;-75
2022/05/18 03:04:19;;;;;;;6.03;5.10;;;12.70;99.90;;;;;;4935027;29;20185;-75
2022/05/18 03:06:45;;;;;;;5.57;4.33;;;12.70;99.90;;;;;;4936073;29;20185;-75
2022/05/18 03:09:10;;;;;;;10.13;5.20;;;12.70;99.90;;;;;;4937090;29;20565;-75
2022/05/18 03:11:36;;;;;;;9.00;5.00;;;12.60;99.90;;;;;;4937117;29;20464;-74
2022/05/18 03:14:02;;;;;;;8.13;6.07;;;12.60;99.90;;;;;;4936982;29;20210;-75
2022/05/18 03:16:29;;;;;;;6.27;5.10;;;12.60;99.90;;;;;;4937113;29;20881;-75
2022/05/18 03:18:55;;;;;;;6.47;5.77;;;12.60;99.90;;;;;;4936799;29;20185;-75
2022/05/18 03:24:05;;;;;;;5.70;5.20;;;12.50;99.90;;;;;;4937030;29;20224;-75
2022/05/18 03:26:30;;;;;;;7.70;5.60;;;12.50;99.90;;;;;;4937014;29;20448;-75
2022/05/18 03:28:56;;;;;;;6.93;4.50;;;12.50;99.90;;;;;;4936688;29;20481;-75
2022/05/18 03:31:23;;;;;;;7.67;5.10;;;12.50;99.90;;;;;;4936375;29;20285;-75
2022/05/18 03:33:50;;;;;;;5.00;4.50;;;12.50;99.90;;;;;;4936912;29;20920;-75
2022/05/18 03:36:17;;;;;;;6.60;5.30;;;12.50;99.90;;;;;;4936780;29;20424;-74
2022/05/18 03:38:45;;;;;;;5.80;5.17;;;12.50;99.90;;;;;;4936551;29;20532;-76
2022/05/18 03:41:11;;;;;;;7.97;5.43;;;12.50;99.90;;;;;;4936052;29;20476;-75
2022/05/18 03:43:37;;;;;;;6.50;5.90;;;12.50;99.90;;;;;;4936400;29;20449;-74
2022/05/18 03:46:04;;;;;;;7.30;5.47;;;12.50;99.90;;;;;;4936344;29;20838;-74
2022/05/18 03:48:30;;;;;;;7.47;6.13;;;12.40;99.90;;;;;;4936657;29;20421;-74
2022/05/18 03:50:59;;;;;;;5.70;5.10;;;12.50;99.90;;;;;;4935879;29;20461;-74
2022/05/18 03:53:26;;;;;;;5.60;5.10;;;12.50;99.90;;;;;;4936327;29;20421;-75
2022/05/18 03:55:52;;;;;;;7.13;5.37;;;12.50;99.90;;;;;;4936334;29;20428;-74
2022/05/18 03:58:18;;;;;;;7.97;5.77;;;12.50;99.90;;;;;;4936303;29;20797;-75
2022/05/18 04:00:45;;;;;;;6.50;5.80;;;12.50;99.90;;;;;;4935969;29;20414;-75
2022/05/18 04:03:12;;;;;;;10.30;5.53;;;12.50;99.90;;;;;;4935940;29;20425;-75
2022/05/18 04:05:40;;;;;;;7.30;4.27;;;12.60;99.90;;;;;;4936167;29;20558;-74
2022/05/18 04:08:06;;;;;;;5.43;4.90;;;12.70;99.90;;;;;;4936135;29;20432;-74
2022/05/18 04:10:32;;;;;;;6.00;5.30;;;12.70;99.90;;;;;;4935819;29;20445;-72
2022/05/18 04:12:58;;;;;;;10.53;5.20;;;12.70;99.90;;;;;;4935720;29;20496;-74
2022/05/18 04:15:24;;;;;;;5.70;5.20;;;12.70;99.90;;;;;;4935999;29;20185;-74
2022/05/18 04:17:49;;;;;;;6.97;6.23;;;12.80;99.90;;;;;;4935047;29;20183;-74
2022/05/18 04:20:18;;;;;;;6.53;5.93;;;12.90;99.90;;;;;;4935769;29;20177;-75
2022/05/18 04:22:44;;;;;;;7.57;6.87;;;12.90;99.90;;;;;;4935529;29;20628;-74
2022/05/18 04:25:12;;;;;;;7.70;7.00;;;12.90;99.90;;;;;;4935618;29;20928;-74
2022/05/18 04:27:37;;;;;;;12.40;7.40;;;13.00;99.90;;;;;;4935547;29;20773;-74
2022/05/18 04:30:05;;;;;;;6.07;5.47;;;13.00;99.90;;;;;;4935531;29;20464;-74
2022/05/18 04:32:30;;;;;;;5.73;5.23;;;13.10;99.90;;;;;;4935131;29;20245;-74
2022/05/18 04:34:56;;;;;;;6.70;5.17;;;13.20;99.90;;;;;;4935490;29;20456;-74
2022/05/18 04:37:21;;;;;;;8.67;5.60;;;13.20;99.90;;;;;;4935591;29;20198;-75
2022/05/18 04:39:47;;;;;;;6.00;5.37;;;13.30;99.90;;;;;;4935580;29;20673;-75
2022/05/18 04:42:13;;;;;;;7.10;6.17;;;13.40;99.90;;;;;;4934873;29;20209;-75
2022/05/18 04:44:39;;;;;;;6.27;5.33;;;13.50;99.90;;;;;;4935492;29;20771;-75
2022/05/18 04:47:05;;;;;;;6.17;5.57;;;13.50;99.90;;;;;;4935391;29;20524;-75
2022/05/18 04:49:32;;;;;;;8.40;5.63;;;13.60;99.90;;;;;;4935204;29;20214;-74
2022/05/18 04:51:58;;;;;;;7.27;5.87;;;13.70;99.90;;;;;;4938308;29;20426;-74
2022/05/18 04:54:24;;;;;;;5.97;5.30;;;13.80;99.90;;;;;;4936828;29;20618;-75
2022/05/18 04:56:49;;;;;;;7.97;5.97;;;13.90;99.90;;;;;;4934984;29;20558;-75
2022/05/18 04:59:15;;;;;;;8.63;5.90;;;14.00;99.90;;;;;;4935061;29;20185;-75
2022/05/18 05:01:42;;;;;;;7.20;6.50;;;14.20;99.90;;;;;;4934778;29;20201;-74
2022/05/18 05:04:09;;;;;;;8.90;6.23;;;14.30;99.90;;;;;;4934990;29;20211;-71
2022/05/18 05:06:36;;;;;;;8.23;6.40;;;14.60;99.90;;;;;;4935317;29;20918;-71
2022/05/18 05:09:02;;;;;;;6.43;5.83;;;15.10;99.90;;;;;;4934806;29;20425;-72
2022/05/18 05:11:28;;;;;;;10.70;6.40;;;16.80;99.90;;;;;;4934784;29;20547;-72
2022/05/18 05:13:53;;;;;;;9.10;6.70;;;19.10;99.90;;;;;;4934797;29;20508;-72
2022/05/18 05:16:19;;;;;;;11.97;7.83;;;21.20;99.90;;;;;;4913185;29;20568;-69
2022/05/18 05:18:44;;;;;;;17.50;10.13;;;23.20;99.90;;;;;;4903584;29;20190;-71
2022/05/18 05:21:10;;;;;;;14.97;9.73;;;24.60;99.90;;;;;;4908017;29;20762;-71
2022/05/18 05:23:36;;;;;;;10.83;7.07;;;25.90;99.90;;;;;;4914492;29;20222;-71
2022/05/18 05:26:02;;;;;;;11.07;6.97;;;26.90;99.90;;;;;;4913696;29;20500;-71
2022/05/18 05:28:28;;;;;;;11.10;6.83;;;27.30;99.90;;;;;;4914556;29;20189;-71
2022/05/18 05:30:54;;;;;;;10.87;5.47;;;27.50;99.90;;;;;;4913420;29;20884;-71
2022/05/18 05:33:19;;;;;;;8.20;5.60;;;27.70;99.90;;;;;;4915662;29;20174;-72
2022/05/18 05:35:45;;;;;;;9.60;5.73;;;28.40;99.90;;;;;;4915604;29;20182;-72
2022/05/18 05:38:11;;;;;;;8.67;6.30;;;28.70;99.90;;;;;;4915541;29;20680;-72
2022/05/18 05:40:38;;;;;;;6.37;5.77;;;29.00;99.90;;;;;;4915112;29;20532;-71
2022/05/18 05:43:11;;;;;;;15.60;7.97;;;28.80;99.90;;;;;;4915269;29;20426;-71
2022/05/18 05:45:38;;;;;;;8.33;6.07;;;28.90;99.90;;;;;;4915372;29;20563;-71
2022/05/18 05:48:05;;;;;;;11.23;5.70;;;28.50;99.90;;;;;;4915201;29;20426;-72
2022/05/18 05:50:30;;;;;;;9.00;6.50;;;28.40;99.90;;;;;;4915245;29;20426;-71
2022/05/18 05:52:57;;;;;;;11.27;6.07;;;28.00;99.90;;;;;;4914986;29;20480;-71
2022/05/18 05:55:23;;;;;;;10.57;5.43;;;27.70;99.90;;;;;;4915274;29;20181;-71
2022/05/18 05:57:48;;;;;;;9.30;6.07;;;27.00;99.90;;;;;;4915212;29;20422;-71
2022/05/18 06:00:14;;;;;;;9.33;6.67;;;26.80;99.90;;;;;;4915292;29;20186;-71
2022/05/18 06:02:40;;;;;;;8.53;6.47;;;26.30;99.90;;;;;;4914878;29;20209;-71
2022/05/18 06:05:06;;;;;;;12.83;6.10;;;26.10;99.90;;;;;;4913670;29;20912;-70
2022/05/18 06:07:32;;;;;;;8.90;4.97;;;25.90;99.90;;;;;;4915008;29;20287;-72
2022/05/18 06:09:57;;;;;;;11.10;5.40;;;25.60;99.90;;;;;;4914806;29;20714;-71
2022/05/18 06:12:28;;;;;;;11.10;4.77;;;25.60;99.90;;;;;;4914623;29;20229;-72
2022/05/18 06:14:53;;;;;;;6.10;4.53;;;25.40;99.90;;;;;;4915036;29;20265;-71
2022/05/18 06:17:20;;;;;;;11.37;5.83;;;25.60;99.90;;;;;;4914864;29;21026;-71
2022/05/18 06:19:45;;;;;;;5.83;4.73;;;25.50;99.90;;;;;;4915266;29;20317;-72
2022/05/18 06:22:11;;;;;;;6.63;4.53;;;25.40;99.90;;;;;;4914358;29;20520;-71
2022/05/18 06:24:36;;;;;;;10.90;5.90;;;25.40;99.90;;;;;;4915027;29;20567;-72
2022/05/18 06:27:03;;;;;;;5.80;4.30;;;25.70;99.90;;;;;;4914665;29;20186;-72
2022/05/18 06:29:28;;;;;;;10.50;4.57;;;25.80;99.90;;;;;;4914968;29;20565;-71
2022/05/18 06:31:54;;;;;;;7.93;5.33;;;26.00;99.90;;;;;;4914094;29;20481;-71
2022/05/18 06:34:22;;;;;;;8.53;5.40;;;26.20;99.90;;;;;;4914862;29;20183;-71
2022/05/18 06:36:49;;;;;;;6.63;4.67;;;26.00;99.90;;;;;;4914742;29;20422;-71
2022/05/18 06:39:18;;;;;;;8.93;5.40;;;25.80;99.90;;;;;;4914784;29;20935;-71
2022/05/18 06:41:44;;;;;;;13.10;5.00;;;25.90;99.90;;;;;;4916654;29;20497;-70
2022/05/18 06:44:10;;;;;;;8.30;5.53;;;26.00;99.90;;;;;;4918309;29;20430;-70
2022/05/18 06:46:36;;;;;;;12.63;5.90;;;26.20;99.90;;;;;;4918539;29;21009;-71
2022/05/18 06:49:03;;;;;;;5.23;4.73;;;26.40;99.90;;;;;;4918140;29;20182;-71
2022/05/18 06:51:35;;;;;;;9.93;5.30;;;26.50;99.90;;;;;;4918811;29;20469;-71
2022/05/18 06:54:01;;;;;;;10.03;4.10;;;26.70;99.90;;;;;;4918629;29;20525;-71
2022/05/18 06:56:33;;;;;;;10.13;4.30;;;26.80;99.90;;;;;;4918335;29;20542;-71
2022/05/18 06:59:00;;;;;;;8.50;4.07;;;26.90;99.90;;;;;;4917879;29;20200;-71
2022/05/18 07:01:28;;;;;;;14.07;6.90;;;27.10;99.90;;;;;;4918878;29;20449;-71
2022/05/18 07:03:54;;;;;;;10.97;5.10;;;27.00;99.90;;;;;;4918909;29;20478;-72
2022/05/18 07:06:22;;;;;;;5.30;3.83;;;27.10;99.90;;;;;;4918076;29;20422;-71
2022/05/18 07:08:50;;;;;;;5.60;3.93;;;27.40;99.90;;;;;;4917732;29;20246;-71
2022/05/18 07:11:16;;;;;;;11.20;4.03;;;27.40;99.90;;;;;;4917622;29;20473;-71
2022/05/18 07:13:42;;;;;;;8.33;3.97;;;27.60;99.90;;;;;;4917835;29;20414;-70
2022/05/18 07:16:08;;;;;;;4.80;4.13;;;27.50;99.90;;;;;;4917802;29;20181;-71
2022/05/18 07:18:34;;;;;;;6.00;4.07;;;27.50;99.90;;;;;;4917730;29;20414;-70
2022/05/18 07:21:05;;;;;;;6.20;4.20;;;27.80;99.90;;;;;;4917978;29;20197;-71
2022/05/18 07:23:31;;;;;;;8.87;4.43;;;27.80;99.90;;;;;;4917781;29;20425;-71
2022/05/18 07:25:58;;;;;;;5.00;4.30;;;27.70;99.90;;;;;;4917689;29;20410;-71
2022/05/18 07:28:24;;;;;;;5.87;3.83;;;27.70;99.90;;;;;;4917822;29;20551;-71
2022/05/18 07:30:51;;;;;;;6.77;4.20;;;27.70;99.90;;;;;;4917379;29;20444;-71
2022/05/18 07:33:18;;;;;;;7.37;4.00;;;27.90;99.90;;;;;;4917550;29;20525;-70
2022/05/18 07:35:44;;;;;;;3.73;3.43;;;28.00;99.90;;;;;;4917567;29;20418;-70
2022/05/18 07:38:10;;;;;;;9.53;3.47;;;28.20;99.90;;;;;;4917270;29;20995;-71
2022/05/18 07:40:35;;;;;;;4.33;3.40;;;27.90;99.90;;;;;;4917450;29;20178;-70
2022/05/18 07:43:02;;;;;;;8.53;4.00;;;27.90;99.90;;;;;;4917277;29;20426;-71
2022/05/18 07:45:28;;;;;;;3.80;3.50;;;28.00;99.90;;;;;;4917481;29;20196;-71
2022/05/18 07:47:54;;;;;;;4.90;3.17;;;28.30;99.90;;;;;;4917299;29;20425;-71
2022/05/18 07:50:21;;;;;;;5.23;3.17;;;28.40;99.90;;;;;;4917128;29;20418;-71
2022/05/18 07:52:47;;;;;;;6.60;3.60;;;28.50;99.90;;;;;;4915873;29;20465;-71
2022/05/18 07:55:13;;;;;;;8.23;3.80;;;28.50;99.90;;;;;;4917122;29;20750;-71
2022/05/18 07:57:39;;;;;;;7.40;3.30;;;28.40;99.90;;;;;;4917248;29;20209;-70
2022/05/18 08:00:06;;;;;;;5.37;3.10;;;28.70;99.90;;;;;;4917270;29;20182;-70
2022/05/18 08:02:33;;;;;;;8.10;3.60;;;28.50;99.90;;;;;;4916578;29;20449;-71
2022/05/18 08:04:59;;;;;;;6.07;4.13;;;28.60;99.90;;;;;;4917359;29;21070;-71
2022/05/18 08:07:25;;;;;;;4.83;2.57;;;28.60;99.90;;;;;;4916894;29;20517;-71
2022/05/18 08:15:20;;;;;;;10.37;3.07;;;29.70;99.90;;;;;;4917195;29;20948;-72
2022/05/18 08:17:46;;;;;;;5.73;3.77;;;29.80;99.90;;;;;;4917104;29;20421;-72
2022/05/18 08:20:14;;;;;;;3.20;2.70;;;29.90;99.90;;;;;;4916782;29;20497;-71
2022/05/18 08:22:41;;;;;;;8.77;2.87;;;30.20;99.90;;;;;;4916563;29;20811;-71
2022/05/18 08:25:09;;;;;;;6.87;3.43;;;30.20;99.90;;;;;;4916728;29;20418;-71
2022/05/18 08:27:39;;;;;;;6.03;2.63;;;30.20;99.90;;;;;;4916705;29;20509;-71
2022/05/18 08:30:06;;;;;;;6.00;3.07;;;30.10;99.90;;;;;;4916578;29;20635;-71
2022/05/18 08:32:31;;;;;;;5.47;3.90;;;30.10;99.90;;;;;;4916288;29;20474;-71
2022/05/18 08:34:57;;;;;;;7.20;3.30;;;30.00;99.90;;;;;;4916420;29;20954;-70
2022/05/18 08:37:23;;;;;;;5.43;3.10;;;30.10;99.90;;;;;;4916843;29;20190;-71
2022/05/18 08:39:50;;;;;;;2.70;2.50;;;30.60;99.90;;;;;;4916590;29;20767;-71
2022/05/18 08:42:17;;;;;;;4.30;3.10;;;31.00;99.90;;;;;;4916115;29;20701;-71
2022/05/18 08:44:43;;;;;;;10.87;3.27;;;31.20;99.90;;;;;;4916637;29;20421;-71
2022/05/18 08:47:11;;;;;;;6.17;3.40;;;31.00;99.90;;;;;;4916188;29;20422;-71
2022/05/18 08:49:50;;;;;;;3.20;3.00;;;31.20;99.90;;;;;;4916473;29;20371;-71
2022/05/18 08:52:32;;;;;;;6.10;3.03;;;31.30;99.90;;;;;;4916319;29;20863;-72
2022/05/18 08:54:58;;;;;;;3.13;2.80;;;31.10;99.90;;;;;;4916805;29;20434;-71
2022/05/18 08:57:28;;;;;;;4.60;2.83;;;31.30;99.90;;;;;;4916707;29;20418;-71
2022/05/18 08:59:59;;;;;;;4.50;3.00;;;31.90;99.90;;;;;;4916069;29;20182;-71
2022/05/18 09:02:29;;;;;;;8.50;3.10;;;31.90;98.30;;;;;;4916304;29;20469;-71
2022/05/18 09:05:07;;;;;;;4.90;2.73;;;31.80;98.90;;;;;;4915972;29;20426;-71
2022/05/18 09:08:14;;;;;;;3.60;2.20;;;31.80;97.80;;;;;;4916344;29;20417;-71
2022/05/18 09:10:55;;;;;;;5.00;3.17;;;31.70;97.90;;;;;;4915507;29;20517;-71
2022/05/18 09:13:21;;;;;;;4.97;2.77;;;31.90;98.20;;;;;;4915319;29;20837;-71
2022/05/18 09:16:04;;;;;;;4.10;2.87;;;32.10;96.70;;;;;;4915863;29;20466;-71
2022/05/18 09:18:41;;;;;;;2.93;2.73;;;31.80;96.20;;;;;;4915800;29;20427;-71
2022/05/18 09:21:23;;;;;;;6.83;2.60;;;31.80;95.90;;;;;;4915330;29;20426;-71
2022/05/18 09:24:14;;;;;;;4.20;3.07;;;31.90;96.10;;;;;;4915695;29;20779;-71
2022/05/18 09:26:47;;;;;;;3.97;3.13;;;32.30;95.20;;;;;;4915792;29;20785;-71
2022/05/18 09:29:30;;;;;;;3.80;2.43;;;32.00;95.10;;;;;;4915390;29;20497;-71
2022/05/18 09:32:14;;;;;;;5.90;3.10;;;32.20;96.20;;;;;;4915004;29;20469;-72
2022/05/18 09:35:06;;;;;;;2.37;2.13;;;32.50;95.30;;;;;;4915474;29;20481;-72
2022/05/18 09:37:46;;;;;;;3.23;2.03;;;32.70;93.90;;;;;;4915290;29;20426;-71
2022/05/18 09:40:32;;;;;;;4.50;2.50;;;31.90;91.40;;;;;;4915261;29;20463;-71
2022/05/18 09:43:10;;;;;;;2.33;2.17;;;31.80;91.70;;;;;;4914095;29;20442;-71
2022/05/18 09:45:39;;;;;;;3.87;1.93;;;31.70;91.80;;;;;;4915536;29;20835;-71
2022/05/18 09:48:28;;;;;;;2.53;2.33;;;31.70;91.30;;;;;;4915228;29;20414;-71
2022/05/18 09:50:55;;;;;;;2.30;1.67;;;32.00;91.10;;;;;;4914931;29;21174;-71
2022/05/18 09:53:21;;;;;;;2.17;1.70;;;32.10;90.60;;;;;;4915135;29;21008;-70
2022/05/18 09:55:49;;;;;;;8.43;2.13;;;32.10;89.60;;;;;;4915230;29;20418;-71
2022/05/18 09:58:26;;;;;;;5.53;2.37;;;31.80;88.40;;;;;;4915675;29;20261;-72
2022/05/18 10:07:27;;;;;;;3.93;1.80;;;32.00;89.80;;;;;;4928943;29;20440;-71
2022/05/18 10:09:46;;;;;;;2.63;1.80;;;32.60;86.00;;;;;;4915327;29;20453;-71
2022/05/18 10:12:24;;;;;;;6.13;2.10;;;32.30;86.50;;;;;;4914387;29;20469;-71
2022/05/18 10:15:04;;;;;;;3.63;2.13;;;32.40;88.10;;;;;;4915103;29;20505;-71
2022/05/18 10:17:34;;;;;;;4.77;2.30;;;32.30;87.70;;;;;;4918526;29;20414;-71
2022/05/18 10:20:06;;;;;;;2.43;2.17;;;32.00;89.50;;;;;;4918999;29;20466;-71
2022/05/18 10:22:37;;;;;;;2.10;1.93;;;31.90;88.80;;;;;;4918602;29;20470;-72
2022/05/18 10:25:24;;;;;;;3.30;2.57;;;31.90;89.30;;;;;;4918853;29;20926;-71
2022/05/18 10:27:50;;;;;;;2.80;2.00;;;31.70;90.60;;;;;;4918875;29;20422;-71
2022/05/18 10:30:32;;;;;;;2.97;2.50;;;31.80;88.30;;;;;;4918763;29;20795;-71
2022/05/18 10:33:03;;;;;;;2.37;2.23;;;31.70;88.80;;;;;;4918326;29;20232;-71
2022/05/18 10:35:44;;;;;;;3.23;2.30;;;31.80;87.80;;;;;;4918742;29;20410;-71
2022/05/18 10:38:28;;;;;;;3.07;1.90;;;32.20;90.40;;;;;;4918536;29;20473;-71
2022/05/18 10:41:15;;;;;;;7.60;1.97;;;32.50;88.80;;;;;;4918333;29;20807;-71
2022/05/18 10:44:04;;;;;;;4.63;1.90;;;32.80;88.60;;;;;;4918569;29;20512;-71
2022/05/18 10:46:39;;;;;;;4.37;1.97;;;32.80;85.90;;;;;;4933171;29;20469;-71
2022/05/18 10:49:12;;;;;;;5.30;2.10;;;32.30;85.00;;;;;;4918525;29;20476;-71
2022/05/18 10:51:38;;;;;;;2.10;2.00;;;32.00;86.00;;;;;;4918679;29;20469;-71
2022/05/18 10:54:25;;;;;;;6.33;2.60;;;32.10;87.00;;;;;;4918412;29;20652;-72
2022/05/18 10:56:53;;;;;;;3.60;1.93;;;32.40;89.60;;;;;;4918456;29;20182;-71
2022/05/18 10:59:38;;;;;;;5.33;2.33;;;32.30;86.90;;;;;;4918141;29;20430;-72
2022/05/18 11:02:29;;;;;;;1.80;1.70;;;32.60;86.90;;;;;;4917923;29;20525;-71
2022/05/18 11:05:04;;;;;;;4.13;2.20;;;32.30;85.90;;;;;;4918285;29;20795;-71
2022/05/18 11:07:30;;;;;;;10.73;2.00;;;31.90;83.70;;;;;;4932841;29;20946;-72
2022/05/18 11:09:57;;;;;;;3.07;2.03;;;31.80;87.60;;;;;;4918234;29;20426;-71
2022/05/18 11:12:48;;;;;;;4.80;2.10;;;31.60;83.80;;;;;;4917825;29;20669;-71
2022/05/18 11:15:43;;;;;;;2.10;2.00;;;31.50;84.40;;;;;;4916621;29;20466;-71
2022/05/18 11:18:31;;;;;;;2.73;2.10;;;31.20;86.10;;;;;;4917461;29;20433;-70
2022/05/18 11:21:24;;;;;;;3.23;2.13;;;31.30;88.10;;;;;;4917572;29;20802;-71
2022/05/18 11:24:08;;;;;;;4.67;1.73;;;31.50;88.30;;;;;;4918909;29;20418;-71
2022/05/18 11:26:55;;;;;;;1.27;1.27;;;31.30;83.20;;;;;;4917904;29;20446;-71
2022/05/18 11:29:32;;;;;;;3.07;1.50;;;31.40;82.40;;;;;;4917679;29;20414;-70
2022/05/18 11:32:15;;;;;;;1.40;1.30;;;31.20;80.90;;;;;;4931752;29;21088;-71
2022/05/18 11:34:41;;;;;;;1.67;1.20;;;30.90;79.30;;;;;;4917729;29;20425;-71
2022/05/18 11:37:06;;;;;;;2.47;1.70;;;30.50;78.80;;;;;;4917530;29;20493;-71
2022/05/18 11:39:37;;;;;;;1.83;1.70;;;30.40;81.70;;;;;;4917764;29;20174;-71
2022/05/18 11:42:25;;;;;;;1.97;1.80;;;30.10;83.60;;;;;;4917283;29;20205;-71
2022/05/18 11:45:05;;;;;;;6.37;1.60;;;30.20;84.00;;;;;;4917575;29;20422;-70
2022/05/18 11:48:00;;;;;;;5.43;1.70;;;30.40;82.00;;;;;;4917442;29;20497;-71
2022/05/18 11:51:04;;;;;;;1.80;1.37;;;30.30;83.00;;;;;;4917292;29;20481;-71
2022/05/18 11:53:46;;;;;;;2.50;1.60;;;30.30;83.30;;;;;;4917416;29;20513;-71
2022/05/18 11:56:20;;;;;;;3.57;1.77;;;30.50;83.10;;;;;;4917237;29;20784;-71
2022/05/18 12:02:14;;;;;;;2.60;1.70;;;30.20;85.80;;;;;;4930203;29;20437;-71
2022/05/18 12:04:50;;;;;;;2.97;2.67;;;30.30;84.00;;;;;;4917359;29;20775;-70
2022/05/18 12:07:57;;;;;;;4.87;2.30;;;30.20;86.00;;;;;;4917015;29;20418;-70
2022/05/18 12:10:50;;;;;;;4.53;1.90;;;30.00;85.50;;;;;;4917227;29;20931;-71
2022/05/18 12:13:30;;;;;;;10.37;1.67;;;29.70;86.40;;;;;;4914564;29;20466;-71
2022/05/18 12:16:20;;;;;;;2.20;1.57;;;29.40;84.80;;;;;;4916786;29;20422;-71
2022/05/18 12:19:24;;;;;;;2.83;1.70;;;29.50;86.90;;;;;;4917038;29;20457;-71
2022/05/18 12:21:58;;;;;;;2.50;1.83;;;29.60;87.00;;;;;;4916305;29;20460;-71
2022/05/18 12:24:25;;;;;;;6.70;1.90;;;29.40;83.30;;;;;;4916851;29;20942;-70
2022/05/18 12:26:52;;;;;;;2.63;1.00;;;29.20;83.30;;;;;;4916724;29;20414;-71
2022/05/18 12:29:22;;;;;;;1.33;1.23;;;29.10;82.60;;;;;;4916610;29;20446;-71
2022/05/18 12:31:49;;;;;;;2.60;1.43;;;29.00;82.90;;;;;;4916121;29;20474;-71
2022/05/18 12:34:14;;;;;;;4.20;2.00;;;28.80;84.20;;;;;;4916774;29;20418;-72
2022/05/18 12:37:02;;;;;;;3.20;1.90;;;28.80;86.10;;;;;;4916624;29;20527;-71
2022/05/18 12:39:47;;;;;;;3.40;1.80;;;28.80;87.50;;;;;;4916021;29;20185;-71
2022/05/18 12:42:38;;;;;;;4.13;2.40;;;28.80;87.90;;;;;;4930719;29;20980;-71
2022/05/18 12:45:27;;;;;;;2.50;2.27;;;28.70;88.70;;;;;;4916311;29;20986;-71
2022/05/18 12:48:12;;;;;;;1.70;1.60;;;28.40;87.40;;;;;;4916534;29;20794;-70
2022/05/18 12:51:05;;;;;;;5.43;1.70;;;28.30;88.90;;;;;;4916132;29;20493;-69
2022/05/18 12:53:51;;;;;;;1.80;1.50;;;28.40;86.90;;;;;;4916178;29;20466;-71
2022/05/18 12:56:20;;;;;;;3.20;2.00;;;28.50;88.20;;;;;;4916240;29;20717;-71
2022/05/18 12:58:54;;;;;;;2.03;1.73;;;28.50;88.70;;;;;;4916232;29;20418;-71
2022/05/18 13:01:22;;;;;;;3.77;1.70;;;28.50;88.50;;;;;;4915932;29;20790;-71
2022/05/18 13:03:54;;;;;;;3.93;2.03;;;28.50;89.80;;;;;;4916106;29;20422;-71
2022/05/18 13:06:39;;;;;;;2.33;2.10;;;28.50;88.70;;;;;;4916114;29;20414;-72
2022/05/18 13:09:26;;;;;;;4.37;1.50;;;28.50;89.50;;;;;;4916035;29;20504;-70
2022/05/18 13:12:16;;;;;;;4.67;2.03;;;28.40;87.40;;;;;;4915584;29;20484;-72
2022/05/18 13:15:03;;;;;;;3.77;2.10;;;28.10;85.40;;;;;;4915824;29;20418;-71
2022/05/18 13:17:41;;;;;;;3.20;2.17;;;28.30;88.40;;;;;;4915937;29;20402;-71
2022/05/18 13:20:16;;;;;;;2.73;1.93;;;28.40;87.00;;;;;;4915695;29;20425;-71
2022/05/18 13:22:48;;;;;;;4.70;2.10;;;28.30;89.50;;;;;;4915606;29;20488;-71
2022/05/18 13:25:14;;;;;;;3.80;2.23;;;28.40;89.60;;;;;;4912841;29;20560;-71
2022/05/18 13:27:50;;;;;;;4.90;1.90;;;28.30;88.50;;;;;;4914300;29;20461;-70
2022/05/18 13:30:29;;;;;;;3.83;2.10;;;28.20;87.90;;;;;;4913958;29;21029;-71
2022/05/18 13:32:55;;;;;;;4.30;1.63;;;28.30;88.00;;;;;;4913831;29;20508;-71
2022/05/18 13:35:26;;;;;;;2.40;2.20;;;28.20;86.90;;;;;;4913838;29;20489;-71
2022/05/18 13:38:19;;;;;;;3.43;2.50;;;28.20;89.20;;;;;;4914093;29;20217;-71
2022/05/18 13:40:53;;;;;;;3.77;1.97;;;28.30;89.10;;;;;;4913634;29;20552;-71
2022/05/18 13:43:20;;;;;;;1.87;1.77;;;28.30;88.60;;;;;;4914579;29;20441;-71
2022/05/18 13:46:00;;;;;;;2.63;2.00;;;28.40;90.10;;;;;;4914017;29;20855;-71
2022/05/18 13:48:27;;;;;;;4.00;1.80;;;28.30;89.00;;;;;;4914535;29;20444;-71
2022/05/18 13:50:58;;;;;;;1.90;1.80;;;28.30;89.50;;;;;;4912648;29;20544;-71
2022/05/18 13:53:31;;;;;;;2.53;1.53;;;28.20;88.50;;;;;;4914356;29;21019;-70
2022/05/18 13:56:03;;;;;;;1.70;1.60;;;28.00;89.50;;;;;;4913875;29;20825;-70
2022/05/18 13:58:29;;;;;;;8.70;1.93;;;28.20;88.90;;;;;;4914283;29;20452;-71
2022/05/18 14:01:00;;;;;;;1.90;1.80;;;28.20;90.50;;;;;;4913335;29;20963;-70
2022/05/18 14:03:32;;;;;;;3.10;1.93;;;28.30;88.90;;;;;;4914285;29;20202;-71
2022/05/18 14:06:04;;;;;;;1.67;1.57;;;28.20;88.40;;;;;;4913516;29;20458;-71
2022/05/18 14:08:33;;;;;;;2.13;1.67;;;28.20;87.00;;;;;;4914397;29;20449;-70
2022/05/18 14:11:06;;;;;;;5.13;2.17;;;28.20;88.70;;;;;;4913275;29;20478;-69
2022/05/18 14:13:32;;;;;;;2.30;2.07;;;28.20;90.20;;;;;;4913373;29;20476;-71
2022/05/18 14:15:59;;;;;;;2.30;2.07;;;28.20;89.50;;;;;;4913416;29;20450;-70
2022/05/18 14:18:35;;;;;;;2.03;1.63;;;28.20;89.20;;;;;;4914232;29;20624;-70
2022/05/18 14:21:06;;;;;;;3.80;2.03;;;28.00;88.40;;;;;;4913409;29;20880;-70
2022/05/18 14:23:57;;;;;;;1.73;1.60;;;28.00;89.90;;;;;;4914116;29;20821;-71
2022/05/18 14:26:31;;;;;;;8.80;2.23;;;28.00;88.90;;;;;;4913797;29;20962;-71
2022/05/18 14:28:59;;;;;;;2.60;1.53;;;28.10;90.10;;;;;;4913658;29;20546;-71
2022/05/18 14:31:28;;;;;;;1.63;1.20;;;28.20;89.60;;;;;;4911126;29;21008;-71
2022/05/18 14:33:58;;;;;;;1.97;1.57;;;28.20;90.20;;;;;;4907356;29;20454;-74
2022/05/18 14:36:30;;;;;;;2.87;1.70;;;28.20;89.40;;;;;;4914440;29;20458;-75
2022/05/18 14:39:01;;;;;;;2.00;1.90;;;28.20;88.50;;;;;;4914147;29;20442;-74
2022/05/18 14:41:36;;;;;;;2.10;1.97;;;28.20;87.80;;;;;;4913771;29;20973;-75
2022/05/18 14:44:02;;;;;;;1.50;1.40;;;28.10;88.00;;;;;;4913692;29;20464;-74
2022/05/18 14:46:34;;;;;;;2.17;2.00;;;28.10;88.30;;;;;;4913742;29;20490;-74
2022/05/18 14:49:05;;;;;;;2.23;2.03;;;28.30;90.90;;;;;;4902240;29;20206;-74
2022/05/18 14:51:40;;;;;;;3.23;1.80;;;28.20;90.00;;;;;;4913277;29;20472;-75
2022/05/18 14:54:14;;;;;;;3.63;1.80;;;28.10;90.40;;;;;;4913443;29;20441;-74
2022/05/18 14:56:44;;;;;;;8.03;2.37;;;28.00;90.70;;;;;;4913091;29;20457;-73